Smiths Grove, KY (42171)

8:27 AM CST on February 06, 2016 (GMT -0600)
Fordes Crossing | | Change Station
CLOSE
Current Station
Personal Weather Station
Location: Bowling Green, KY
Elevation: 571 ft
Nearby Weather Stations
Active Advisory: Flood Warning

Elev 571 ft 36.93 °N, 86.30 °W | Updated 10 seconds ago

Clear
Clear
32.0 °F
Feels Like 32 °F
N
0.0
Wind Variable Wind from South
Gusts 0.0 mph

Today
High -- | Low -- °F
--% Chance of Precip.
Yesterday
High -- | Low -- °F
Precip. -- in
Pressure 30.38 in
Visibility 10.0 miles
Clouds Clear
Windchill 32 °F
Dew Point 21 °F
Humidity 63%
Rainfall 0.00 in
Snow Depth Not available.
6:43 AM 5:14 PM
Waning Crescent, 5% visible
METAR KGLW 061415Z AUTO 00000KT 10SM CLR 02/M05 A3038 RMK AO2 T00151053
Pressure 30.38 in
Visibility 10.0 miles
Clouds Clear
Windchill 32 °F
Dew Point 21 °F
Humidity 63%
Rainfall 0.00 in
Snow Depth Not available.
6:43 AM 5:14 PM
Waning Crescent, 5% visible
METAR KGLW 061415Z AUTO 00000KT 10SM CLR 02/M05 A3038 RMK AO2 T00151053

10-Day Weather Forecast

Almanac

Astronomy

Feb. 06, 2016 Rise Set
Actual Time
Civil Twilight
Nautical Twilight
Astronomical Twilight
Moon
Length of Visible Light
Length of Day
Tomorrow will be .
, % of the Moon is Illuminated

Today's Extremes

State Highs State Lows

Community

WunderPhotos

Upload Photos

1,890,981 photos uploaded!

WunderBlog® & News

Nearby

Air Quality

  Air Quality AQ Index Pollutant
Not available.

Snow Depth

Station Depth Elevation

Earthquake Activity

City Distance Mag. Time & Date
Minimum magnitude displayed is 2.5.

Coastal Water Temperatures

Place Temperature

Stations

Nearby Weather Stations

Station Location Temp. Windchill Dew Point Humidity Wind Precip. Elev Updated Type
                   

Watches & Warnings

Flood Warning
Issued: 9:25 PM EST Feb. 5, 2016 – National Weather Service

The Flood Warning continues for
the Green River at Woodbury.
* Until Saturday morning.
* At 9:00 PM Friday the stage was 34.1 feet.
* Flood stage is 33.0 feet.
* Minor flooding is occurring and minor flooding is forecast.
* Forecast... the river will continue to fall to below flood stage by
early Saturday.
* Impact... at 33.0 feet... KY 403 at James McKinney bridge floods.
Water overflows lock wall.


Lat... Lon 3724 8641 3728 8659 3739 8678 3728 8680
      3716 8665 3713 8641


Mrc